createdAt,value
2018-02-08T16:59:24.585Z,33.90
2018-02-08T17:01:52.884Z,34.60
2018-02-08T17:04:21.147Z,35.00
2018-02-08T17:06:49.397Z,35.40
2018-02-08T17:09:17.739Z,35.30
2018-02-08T17:11:45.946Z,35.60
2018-02-08T17:14:14.208Z,35.60
2018-02-08T17:16:42.472Z,35.70
2018-02-08T17:19:10.724Z,35.90
2018-02-08T17:21:39.385Z,36.40
2018-02-08T17:24:07.787Z,36.30
2018-02-08T17:26:37.111Z,37.00
2018-02-08T17:29:05.594Z,36.70
2018-02-08T17:31:35.344Z,37.00
2018-02-08T17:34:03.594Z,37.20
2018-02-08T17:36:32.011Z,37.10
2018-02-08T17:39:00.443Z,37.40
2018-02-08T17:41:28.713Z,37.60
2018-02-08T17:43:58.088Z,37.70
2018-02-08T17:46:26.388Z,37.80
2018-02-08T17:48:54.613Z,38.00
2018-02-08T17:51:23.967Z,38.00
2018-02-08T17:53:52.262Z,37.90
2018-02-08T17:56:20.500Z,38.10
2018-02-08T17:58:48.765Z,38.30
2018-02-08T18:01:17.019Z,38.10
2018-02-08T18:03:46.209Z,38.20
2018-02-08T18:06:14.496Z,38.30
2018-02-08T18:08:42.924Z,38.50
2018-02-08T18:11:11.204Z,38.70
2018-02-08T18:13:39.473Z,38.90
2018-02-08T18:16:07.778Z,38.80
2018-02-08T18:18:36.177Z,38.80
2018-02-08T18:21:05.240Z,39.00
2018-02-08T18:23:33.737Z,38.90
2018-02-08T18:26:02.049Z,38.90
2018-02-08T18:28:30.289Z,39.10
2018-02-08T18:30:58.580Z,39.10
2018-02-08T18:33:26.870Z,39.30
2018-02-08T18:35:56.737Z,39.60
2018-02-08T18:38:25.851Z,39.80
2018-02-08T18:40:54.307Z,39.60
2018-02-08T18:43:23.436Z,39.70
2018-02-08T18:45:51.848Z,39.70
2018-02-08T18:48:20.360Z,39.70
2018-02-08T18:50:53.491Z,39.90
2018-02-08T18:53:21.767Z,39.90
2018-02-08T18:55:50.060Z,40.00
2018-02-08T18:58:18.343Z,40.20
2018-02-08T19:00:46.596Z,40.00
2018-02-08T19:03:15.006Z,40.10
2018-02-08T19:05:43.424Z,39.90
2018-02-08T19:08:13.565Z,40.10
2018-02-08T19:10:42.029Z,40.20
2018-02-08T19:13:10.411Z,40.40
2018-02-08T19:15:40.334Z,40.90
2018-02-08T19:18:09.167Z,40.60
2018-02-08T19:20:38.273Z,40.70
2018-02-08T19:23:06.516Z,40.90
2018-02-08T19:25:34.804Z,40.80
2018-02-08T19:28:03.156Z,40.70
2018-02-08T19:30:32.260Z,40.80
2018-02-08T19:33:00.564Z,40.80
2018-02-08T19:35:29.621Z,41.10
2018-02-08T19:37:58.353Z,40.90
2018-02-08T19:40:26.610Z,40.90
2018-02-08T19:42:55.029Z,41.00
2018-02-08T19:45:23.300Z,41.40
2018-02-08T19:47:52.362Z,41.70
2018-02-08T19:50:20.898Z,41.60
2018-02-08T19:52:49.137Z,41.50
2018-02-08T19:55:17.413Z,41.50
2018-02-08T19:57:46.625Z,41.50
2018-02-08T20:00:14.944Z,41.50
2018-02-08T20:02:43.202Z,41.50
2018-02-08T20:05:12.268Z,42.10
2018-02-08T20:07:40.588Z,41.40
2018-02-08T20:10:09.720Z,41.40
2018-02-08T20:12:38.040Z,41.40
2018-02-08T20:15:08.753Z,41.50
2018-02-08T20:17:37.868Z,41.50
2018-02-08T20:20:06.965Z,41.60
2018-02-08T20:22:36.935Z,41.60
2018-02-08T20:25:05.223Z,41.60
2018-02-08T20:27:33.526Z,41.60
2018-02-08T20:30:01.771Z,41.60
2018-02-08T20:32:31.620Z,41.90
2018-02-08T20:34:59.914Z,41.90
2018-02-08T20:37:28.934Z,42.00
2018-02-08T20:39:57.202Z,42.00
2018-02-08T20:42:31.221Z,42.00
2018-02-08T20:44:59.670Z,42.00
2018-02-08T20:47:28.073Z,42.20
2018-02-08T20:50:02.113Z,42.30
2018-02-08T20:52:30.405Z,42.30
2018-02-08T20:54:58.667Z,42.30
2018-02-08T20:57:26.967Z,42.30
2018-02-08T20:59:55.289Z,42.40
2018-02-08T21:02:23.729Z,42.60
2018-02-08T21:04:51.964Z,42.60
2018-02-08T21:07:20.328Z,42.60
2018-02-08T21:09:49.042Z,42.60
2018-02-08T21:12:17.277Z,43.20
2018-02-08T21:14:45.940Z,42.70
2018-02-08T21:17:14.317Z,43.50
2018-02-08T21:19:42.572Z,42.80
2018-02-08T21:22:10.848Z,43.00
2018-02-08T21:24:39.155Z,43.00
2018-02-08T21:27:07.425Z,43.00
2018-02-08T21:29:35.741Z,42.70
2018-02-08T21:32:04.021Z,43.00
2018-02-08T21:34:33.210Z,42.90
2018-02-08T21:37:02.308Z,42.80
2018-02-08T21:39:30.558Z,42.70
2018-02-08T21:41:59.696Z,42.80
2018-02-08T21:44:27.950Z,42.80
2018-02-08T21:46:57.255Z,42.90
2018-02-08T21:49:25.676Z,42.90
2018-02-08T21:51:54.004Z,42.80
2018-02-08T21:54:23.044Z,43.00
2018-02-08T21:56:51.305Z,42.70
2018-02-08T21:59:19.543Z,43.10
2018-02-08T22:01:48.757Z,43.00
2018-02-08T22:04:17.048Z,43.10
2018-02-08T22:06:45.279Z,43.20
2018-02-08T22:09:14.512Z,43.10
2018-02-08T22:11:42.758Z,43.20
2018-02-08T22:14:11.009Z,43.30
2018-02-08T22:16:39.266Z,43.30
2018-02-08T22:19:07.530Z,43.30
2018-02-08T22:21:35.816Z,43.20
2018-02-08T22:24:04.109Z,43.20
2018-02-08T22:26:33.334Z,43.20
2018-02-08T22:29:02.521Z,43.30
2018-02-08T22:31:30.970Z,43.20
2018-02-08T22:33:59.243Z,43.10
2018-02-08T22:36:27.652Z,43.00
2018-02-08T22:38:56.038Z,42.80
2018-02-08T22:41:24.282Z,42.70
2018-02-08T22:43:52.518Z,42.70
2018-02-08T22:46:20.790Z,42.60
2018-02-08T22:48:49.190Z,42.60
2018-02-08T22:51:20.337Z,42.40
2018-02-08T22:53:49.065Z,42.50
2018-02-08T22:56:18.948Z,42.40
2018-02-08T22:58:47.204Z,42.50
2018-02-08T23:01:15.455Z,42.60
2018-02-08T23:03:44.681Z,42.50
2018-02-08T23:06:12.925Z,42.50
2018-02-08T23:08:41.168Z,42.60
2018-02-08T23:11:09.465Z,42.60
2018-02-08T23:13:37.798Z,42.40
2018-02-08T23:16:06.047Z,42.60
2018-02-08T23:18:34.377Z,42.60
2018-02-08T23:21:03.192Z,42.60
2018-02-08T23:23:32.225Z,42.90
2018-02-08T23:26:00.531Z,42.60
2018-02-08T23:28:28.842Z,42.70
2018-02-08T23:30:57.948Z,42.90
2018-02-08T23:33:26.221Z,42.70
2018-02-08T23:35:55.245Z,42.70
2018-02-08T23:38:23.527Z,42.90
2018-02-08T23:40:51.781Z,42.70
2018-02-08T23:43:20.919Z,43.10
2018-02-08T23:45:49.224Z,43.00
2018-02-08T23:48:17.435Z,43.00
2018-02-08T23:50:45.700Z,43.30
2018-02-08T23:53:13.964Z,43.40
2018-02-08T23:55:42.999Z,43.20
2018-02-08T23:58:11.268Z,43.50
